Time;durP1;ratioP1;P1;durP2;ratioP2;P2;SDS_P1;SDS_P2;PMS_P1;PMS_P2;Temp;Humidity;BMP_temperature;BMP_pressure;BME280_temperature;BME280_humidity;BME280_pressure;Samples;Min_cycle;Max_cycle;Signal;HPM_P1;HPM_P2
2022/07/31 00:00:38;;;;;;;3.20;1.80;;;;;18.00;94506.00;;;;7394779;19;20160;-73
2022/07/31 00:03:07;;;;;;;3.70;1.98;;;;;18.00;94500.00;;;;7392135;19;20152;-74
2022/07/31 00:05:35;;;;;;;3.90;2.20;;;;;18.10;94505.00;;;;7392298;19;20180;-75
2022/07/31 00:08:16;;;;;;;3.45;2.10;;;;;18.30;94503.00;;;;7393207;19;20476;-74
2022/07/31 00:10:43;;;;;;;4.38;2.08;;;;;18.20;94503.00;;;;7390698;19;20154;-75
2022/07/31 00:13:17;;;;;;;1.80;1.70;;;;;18.10;94503.00;;;;7392819;19;20614;-75
2022/07/31 00:16:04;;;;;;;3.85;2.17;;;;;18.10;94500.00;;;;7394436;19;20182;-75
2022/07/31 00:18:39;;;;;;;3.05;2.00;;;;;18.10;94504.00;;;;7391724;19;20138;-75
2022/07/31 00:21:06;;;;;;;1.98;1.77;;;;;18.10;94501.00;;;;7391314;19;20157;-75
2022/07/31 00:23:34;;;;;;;3.05;2.00;;;;;18.10;94492.00;;;;7394806;19;20132;-75
2022/07/31 00:26:08;;;;;;;4.68;2.00;;;;;18.10;94491.00;;;;7393853;19;20152;-75
2022/07/31 00:28:36;;;;;;;2.65;1.88;;;;;18.00;94481.00;;;;7394032;19;20678;-75
2022/07/31 00:31:03;;;;;;;4.80;2.00;;;;;17.90;94488.00;;;;7391649;19;20164;-75
2022/07/31 00:33:38;;;;;;;6.63;1.80;;;;;17.80;94487.00;;;;7393871;19;20132;-74
2022/07/31 00:36:06;;;;;;;4.45;1.80;;;;;17.90;94485.00;;;;7394626;19;20136;-75
2022/07/31 00:38:33;;;;;;;3.80;1.83;;;;;17.80;94484.00;;;;7395006;19;20232;-74
2022/07/31 00:41:08;;;;;;;2.75;2.15;;;;;17.70;94490.00;;;;7392657;19;20120;-74
2022/07/31 00:43:35;;;;;;;2.08;1.85;;;;;17.40;94483.00;;;;7393172;19;20124;-75
2022/07/31 00:46:03;;;;;;;4.35;2.05;;;;;17.40;94494.00;;;;7393167;19;20144;-75
2022/07/31 00:48:41;;;;;;;4.15;1.90;;;;;17.40;94494.00;;;;7389303;19;20682;-75
2022/07/31 00:51:08;;;;;;;4.13;1.88;;;;;17.30;94484.00;;;;7390797;19;20189;-74
2022/07/31 00:53:36;;;;;;;3.25;2.15;;;;;17.30;94489.00;;;;7392283;19;20144;-74
2022/07/31 00:56:10;;;;;;;2.80;1.92;;;;;17.20;94488.00;;;;7392720;19;20230;-75
2022/07/31 00:58:38;;;;;;;3.22;2.22;;;;;17.20;94484.00;;;;7393460;19;20603;-75
2022/07/31 01:01:05;;;;;;;2.20;1.85;;;;;17.20;94486.00;;;;7391487;19;20117;-75
2022/07/31 01:03:39;;;;;;;4.47;1.65;;;;;17.30;94483.00;;;;7392146;19;20168;-75
2022/07/31 01:06:14;;;;;;;2.00;1.80;;;;;17.20;94485.00;;;;7391647;19;20734;-75
2022/07/31 01:08:48;;;;;;;2.33;1.80;;;;;17.10;94489.00;;;;7388048;19;20139;-75
2022/07/31 01:11:43;;;;;;;2.50;2.00;;;;;17.10;94485.00;;;;7392660;19;20603;-74
2022/07/31 01:14:20;;;;;;;2.47;1.90;;;;;17.00;94486.00;;;;7393157;19;20638;-75
2022/07/31 01:16:50;;;;;;;3.67;1.92;;;;;17.00;94494.00;;;;7391104;19;20663;-75
2022/07/31 01:19:39;;;;;;;4.18;2.20;;;;;16.90;94490.00;;;;7391821;19;20136;-75
2022/07/31 01:22:47;;;;;;;2.92;1.75;;;;;16.90;94488.00;;;;7391925;19;21057;-75
2022/07/31 01:25:39;;;;;;;3.08;2.05;;;;;16.90;94486.00;;;;7391774;19;20129;-74
2022/07/31 01:28:21;;;;;;;5.60;1.90;;;;;16.90;94488.00;;;;7397137;19;20133;-75
2022/07/31 01:31:13;;;;;;;3.67;1.88;;;;;16.90;94491.00;;;;7397058;19;20121;-74
2022/07/31 01:34:08;;;;;;;3.97;2.05;;;;;16.90;94487.00;;;;7399043;19;20148;-74
2022/07/31 01:36:48;;;;;;;7.50;2.20;;;;;16.90;94480.00;;;;7399051;19;20133;-74
2022/07/31 01:39:17;;;;;;;5.05;2.15;;;;;16.80;94487.00;;;;7398838;19;20156;-74
2022/07/31 01:41:52;;;;;;;3.60;2.05;;;;;16.90;94488.00;;;;7397964;19;20168;-74
2022/07/31 01:44:23;;;;;;;4.82;2.28;;;;;16.80;94481.00;;;;7401046;19;20121;-73
2022/07/31 01:46:58;;;;;;;2.70;1.88;;;;;16.90;94482.00;;;;7397080;19;20161;-73
2022/07/31 01:49:27;;;;;;;2.58;1.92;;;;;16.80;94483.00;;;;7398532;19;20480;-73
2022/07/31 01:51:56;;;;;;;2.67;2.03;;;;;16.70;94477.00;;;;7399919;19;20137;-75
2022/07/31 01:54:34;;;;;;;3.15;2.00;;;;;16.70;94481.00;;;;7398924;19;20173;-75
2022/07/31 01:57:03;;;;;;;2.97;2.17;;;;;16.80;94476.00;;;;7396718;19;20627;-75
2022/07/31 01:59:48;;;;;;;6.65;2.15;;;;;16.70;94478.00;;;;7398544;19;20212;-74
2022/07/31 02:02:22;;;;;;;5.43;2.13;;;;;16.80;94476.00;;;;7398091;19;20155;-75
2022/07/31 02:05:11;;;;;;;2.88;2.00;;;;;16.50;94484.00;;;;7395572;19;20176;-74
2022/07/31 02:07:44;;;;;;;2.65;1.98;;;;;16.50;94483.00;;;;7397922;19;20133;-74
2022/07/31 02:10:19;;;;;;;3.00;2.03;;;;;16.50;94487.00;;;;7398249;19;20149;-73
2022/07/31 02:12:48;;;;;;;1.98;1.73;;;;;16.40;94489.00;;;;7396827;19;20113;-74
2022/07/31 02:15:17;;;;;;;4.75;2.08;;;;;16.40;94486.00;;;;7396362;19;20132;-75
2022/07/31 02:17:53;;;;;;;2.08;1.90;;;;;16.30;94481.00;;;;7398931;19;20521;-74
2022/07/31 02:20:22;;;;;;;2.15;1.95;;;;;16.10;94480.00;;;;7398634;19;20149;-74
2022/07/31 02:22:50;;;;;;;2.03;1.63;;;;;16.00;94479.00;;;;7395625;19;20131;-74
2022/07/31 02:25:25;;;;;;;7.05;2.13;;;;;16.20;94478.00;;;;7397532;19;20132;-75
2022/07/31 02:27:56;;;;;;;3.42;1.70;;;;;16.20;94478.00;;;;7398661;19;20133;-74
2022/07/31 02:30:31;;;;;;;3.42;2.08;;;;;16.00;94475.00;;;;7397869;19;20608;-74
2022/07/31 02:33:10;;;;;;;3.58;1.80;;;;;15.70;94470.00;;;;7397007;19;20466;-74
2022/07/31 02:35:39;;;;;;;1.88;1.77;;;;;15.70;94466.00;;;;7396150;19;20169;-75
2022/07/31 02:38:15;;;;;;;3.33;2.08;;;;;16.00;94468.00;;;;7397185;19;20591;-75
2022/07/31 02:40:52;;;;;;;2.55;1.80;;;;;16.10;94471.00;;;;7395975;19;20586;-75
2022/07/31 02:43:27;;;;;;;4.07;1.88;;;;;16.00;94467.00;;;;7395890;19;20131;-75
2022/07/31 02:45:56;;;;;;;1.98;1.77;;;;;16.00;94466.00;;;;7397197;19;20171;-75
2022/07/31 02:48:25;;;;;;;1.88;1.73;;;;;16.00;94468.00;;;;7395594;19;20212;-73
2022/07/31 02:50:59;;;;;;;3.28;1.70;;;;;16.20;94465.00;;;;7393408;19;20125;-75
2022/07/31 02:53:27;;;;;;;3.65;2.22;;;;;16.30;94461.00;;;;7396677;19;20125;-75
2022/07/31 02:55:56;;;;;;;2.20;2.00;;;;;16.40;94460.00;;;;7397794;19;20141;-73
2022/07/31 02:58:30;;;;;;;5.18;2.00;;;;;16.50;94458.00;;;;7396943;19;20183;-75
2022/07/31 03:01:02;;;;;;;2.55;1.80;;;;;16.50;94454.00;;;;7395641;19;20120;-75
2022/07/31 03:03:30;;;;;;;3.20;1.90;;;;;16.50;94460.00;;;;7394569;19;20145;-75
2022/07/31 03:06:17;;;;;;;2.80;1.90;;;;;16.70;94461.00;;;;7393404;19;20536;-74
2022/07/31 03:08:52;;;;;;;8.27;2.33;;;;;16.70;94456.00;;;;7393602;19;20121;-75
2022/07/31 03:11:26;;;;;;;1.83;1.70;;;;;16.80;94450.00;;;;7396355;19;20177;-75
2022/07/31 03:13:57;;;;;;;2.25;2.05;;;;;16.90;94450.00;;;;7396043;19;20192;-75
2022/07/31 03:16:26;;;;;;;3.17;2.00;;;;;16.80;94454.00;;;;7397136;19;20494;-75
2022/07/31 03:19:03;;;;;;;2.40;1.73;;;;;16.70;94450.00;;;;7393814;19;20611;-75
2022/07/31 03:21:31;;;;;;;3.33;1.80;;;;;16.80;94449.00;;;;7395588;19;20148;-75
2022/07/31 03:23:59;;;;;;;2.55;1.80;;;;;16.60;94449.00;;;;7395278;19;20203;-75
2022/07/31 03:26:34;;;;;;;2.25;1.98;;;;;16.70;94442.00;;;;7396355;19;20128;-75
2022/07/31 03:29:01;;;;;;;2.80;1.70;;;;;16.80;94449.00;;;;7394396;19;20178;-74
2022/07/31 03:31:29;;;;;;;6.00;1.80;;;;;16.70;94444.00;;;;7393544;19;20137;-75
2022/07/31 03:34:03;;;;;;;9.18;2.20;;;;;16.70;94449.00;;;;7396678;19;20135;-75
2022/07/31 03:36:30;;;;;;;1.70;1.60;;;;;16.60;94454.00;;;;7396750;19;20643;-74
2022/07/31 03:38:58;;;;;;;4.28;1.90;;;;;16.50;94450.00;;;;7393807;19;20132;-74
2022/07/31 03:41:32;;;;;;;4.15;2.08;;;;;16.70;94453.00;;;;7394683;19;20148;-75
2022/07/31 03:44:01;;;;;;;2.28;1.80;;;;;16.60;94451.00;;;;7395380;19;20153;-75
2022/07/31 03:46:28;;;;;;;4.18;1.98;;;;;16.60;94455.00;;;;7394362;19;20144;-73
2022/07/31 03:49:09;;;;;;;2.63;1.85;;;;;16.40;94458.00;;;;7391333;19;21015;-74
2022/07/31 03:51:37;;;;;;;2.55;1.85;;;;;16.30;94460.00;;;;7394929;19;20154;-75
2022/07/31 03:54:11;;;;;;;2.40;1.67;;;;;16.40;94455.00;;;;7395135;19;20124;-74
2022/07/31 03:56:42;;;;;;;2.92;2.00;;;;;16.40;94451.00;;;;7390767;19;20148;-74
2022/07/31 03:59:12;;;;;;;3.75;1.92;;;;;16.30;94457.00;;;;7394458;19;20163;-74
2022/07/31 04:01:48;;;;;;;4.13;2.00;;;;;16.30;94460.00;;;;7393532;19;20175;-73
2022/07/31 04:04:31;;;;;;;3.35;1.95;;;;;16.40;94457.00;;;;7393455;19;20148;-73
2022/07/31 04:07:13;;;;;;;1.90;1.80;;;;;16.30;94459.00;;;;7391787;19;20154;-74
2022/07/31 04:09:40;;;;;;;5.40;2.17;;;;;16.40;94455.00;;;;7392183;19;20124;-74
2022/07/31 04:12:14;;;;;;;2.20;1.90;;;;;16.40;94448.00;;;;7394627;19;20615;-75
2022/07/31 04:14:42;;;;;;;2.65;1.90;;;;;16.30;94452.00;;;;7390348;19;20129;-74
2022/07/31 04:17:10;;;;;;;2.33;1.75;;;;;16.50;94451.00;;;;7392721;19;20215;-74
2022/07/31 04:19:44;;;;;;;2.50;1.77;;;;;16.50;94451.00;;;;7394986;19;20141;-74
2022/07/31 04:22:12;;;;;;;3.28;1.77;;;;;16.60;94452.00;;;;7394697;19;20154;-76
2022/07/31 04:24:39;;;;;;;3.47;1.80;;;;;16.70;94455.00;;;;7390257;19;20614;-74
2022/07/31 04:27:16;;;;;;;2.03;1.90;;;;;16.80;94454.00;;;;7394004;19;20141;-74
2022/07/31 04:29:48;;;;;;;2.03;1.92;;;;;16.70;94461.00;;;;7390381;19;20192;-74
2022/07/31 04:32:23;;;;;;;2.85;2.00;;;;;16.70;94456.00;;;;7392367;19;20148;-73
2022/07/31 04:34:51;;;;;;;2.88;1.98;;;;;16.90;94448.00;;;;7391778;19;20164;-76
2022/07/31 04:37:19;;;;;;;2.45;2.15;;;;;17.00;94452.00;;;;7392126;19;20156;-74
2022/07/31 04:39:53;;;;;;;2.95;2.20;;;;;17.10;94455.00;;;;7391884;19;20790;-75
2022/07/31 04:42:21;;;;;;;3.03;1.88;;;;;17.20;94457.00;;;;7393922;19;20176;-76
2022/07/31 04:44:48;;;;;;;3.70;1.90;;;;;17.20;94456.00;;;;7392046;19;20233;-75
2022/07/31 04:47:22;;;;;;;2.55;2.03;;;;;17.30;94462.00;;;;7391262;19;20148;-73
2022/07/31 04:49:49;;;;;;;6.00;1.80;;;;;17.30;94468.00;;;;7390750;19;20145;-75
2022/07/31 04:52:17;;;;;;;3.58;1.70;;;;;17.50;94467.00;;;;7394518;19;20132;-74
2022/07/31 04:54:51;;;;;;;2.20;1.83;;;;;17.60;94467.00;;;;7390678;19;20683;-74
2022/07/31 04:57:18;;;;;;;2.33;1.77;;;;;17.60;94466.00;;;;7391807;19;20113;-74
2022/07/31 04:59:48;;;;;;;2.65;1.90;;;;;17.70;94463.00;;;;7391626;19;20651;-74
2022/07/31 05:02:27;;;;;;;2.97;1.70;;;;;17.70;94462.00;;;;7391011;19;20621;-74
2022/07/31 05:05:01;;;;;;;1.95;1.77;;;;;17.90;94457.00;;;;7388754;19;20196;-74
2022/07/31 05:07:42;;;;;;;1.90;1.80;;;;;17.90;94454.00;;;;7394171;19;20128;-74
2022/07/31 05:11:21;;;;;;;2.33;1.80;;;;;18.00;94461.00;;;;7387833;19;20212;-74
2022/07/31 05:13:03;;;;;;;2.10;1.65;;;;;18.00;94468.00;;;;7392046;19;20125;-74
2022/07/31 05:15:31;;;;;;;2.15;1.75;;;;;18.00;94465.00;;;;7388820;19;20166;-74
2022/07/31 05:17:58;;;;;;;4.57;2.00;;;;;18.10;94463.00;;;;7393772;19;20133;-74
2022/07/31 05:20:32;;;;;;;5.15;1.70;;;;;18.20;94458.00;;;;7392324;19;20159;-74
2022/07/31 05:22:59;;;;;;;2.20;2.00;;;;;18.30;94461.00;;;;7389606;19;20132;-74
2022/07/31 05:25:27;;;;;;;2.85;1.90;;;;;18.50;94458.00;;;;7392601;19;20133;-74
2022/07/31 05:28:01;;;;;;;4.32;1.90;;;;;18.70;94458.00;;;;7390383;19;20137;-74
2022/07/31 05:30:28;;;;;;;4.28;1.83;;;;;18.90;94458.00;;;;7391744;19;20176;-74
2022/07/31 05:32:57;;;;;;;2.55;1.90;;;;;19.00;94453.00;;;;7390902;19;20196;-75
2022/07/31 05:35:31;;;;;;;3.67;1.83;;;;;19.10;94456.00;;;;7390164;19;20116;-74
2022/07/31 05:37:58;;;;;;;2.03;1.67;;;;;19.30;94454.00;;;;7391303;19;20168;-75
2022/07/31 05:40:26;;;;;;;2.25;1.70;;;;;19.40;94446.00;;;;7392157;19;20626;-74
2022/07/31 05:43:00;;;;;;;1.88;1.67;;;;;19.50;94454.00;;;;7390862;19;20152;-74
2022/07/31 05:45:27;;;;;;;2.20;1.77;;;;;19.60;94450.00;;;;7389861;19;20136;-74
2022/07/31 05:47:55;;;;;;;2.03;1.70;;;;;19.70;94444.00;;;;7391970;19;20520;-75
2022/07/31 05:50:29;;;;;;;4.63;1.92;;;;;19.80;94447.00;;;;7392582;19;20671;-74
2022/07/31 05:52:57;;;;;;;1.98;1.48;;;;;19.80;94454.00;;;;7391062;19;20201;-75
2022/07/31 05:55:25;;;;;;;2.83;1.75;;;;;19.90;94451.00;;;;7390464;19;20212;-75
2022/07/31 05:57:59;;;;;;;2.13;1.50;;;;;20.00;94451.00;;;;7389680;19;20155;-74
2022/07/31 06:00:27;;;;;;;2.28;1.60;;;;;20.10;94455.00;;;;7386192;19;20133;-75
2022/07/31 06:02:56;;;;;;;3.05;1.60;;;;;20.30;94454.00;;;;7387520;19;20491;-74
2022/07/31 06:05:38;;;;;;;2.42;1.50;;;;;20.30;94456.00;;;;7389363;19;20189;-75
2022/07/31 06:08:12;;;;;;;2.05;1.58;;;;;20.40;94458.00;;;;7390348;19;20905;-74
2022/07/31 06:10:46;;;;;;;6.65;2.00;;;;;20.40;94463.00;;;;7390429;19;20137;-74
2022/07/31 06:13:14;;;;;;;2.10;1.77;;;;;20.50;94457.00;;;;7394422;19;20156;-74
2022/07/31 06:15:42;;;;;;;3.83;1.50;;;;;20.50;94466.00;;;;7398069;19;20140;-75
2022/07/31 06:18:16;;;;;;;3.75;1.55;;;;;20.50;94467.00;;;;7397856;19;20685;-75
2022/07/31 06:20:43;;;;;;;2.22;1.58;;;;;20.60;94464.00;;;;7396026;19;20651;-75
2022/07/31 06:23:11;;;;;;;2.00;1.80;;;;;20.60;94468.00;;;;7397294;19;20620;-76
2022/07/31 06:25:58;;;;;;;3.58;1.83;;;;;20.70;94467.00;;;;7395981;19;20131;-76
2022/07/31 06:28:25;;;;;;;3.25;1.60;;;;;20.90;94470.00;;;;7395663;19;20157;-75
2022/07/31 06:31:19;;;;;;;2.55;1.50;;;;;21.10;94464.00;;;;7396884;19;20153;-76
2022/07/31 06:33:48;;;;;;;3.08;1.50;;;;;21.20;94470.00;;;;7400417;19;20143;-76
2022/07/31 06:36:22;;;;;;;2.30;1.60;;;;;21.30;94472.00;;;;7397161;19;20176;-77
2022/07/31 06:38:50;;;;;;;1.85;1.67;;;;;21.50;94485.00;;;;7398467;19;20331;-76
2022/07/31 06:44:11;;;;;;;4.03;1.73;;;;;21.60;94475.00;;;;7397912;19;20146;-76
2022/07/31 06:46:38;;;;;;;3.72;1.58;;;;;21.70;94476.00;;;;7395941;19;20190;-76
2022/07/31 06:49:16;;;;;;;3.08;1.70;;;;;21.80;94470.00;;;;7395657;19;20598;-76
2022/07/31 06:51:50;;;;;;;3.50;1.60;;;;;22.00;94479.00;;;;7398200;19;20132;-76
2022/07/31 06:54:18;;;;;;;4.15;1.70;;;;;22.10;94472.00;;;;7396521;19;20658;-76
2022/07/31 06:56:53;;;;;;;2.78;1.38;;;;;22.00;94484.00;;;;7395657;19;20140;-75
2022/07/31 06:59:27;;;;;;;3.22;1.50;;;;;22.20;94476.00;;;;7395735;19;20140;-75
2022/07/31 07:02:07;;;;;;;2.55;1.60;;;;;22.30;94478.00;;;;7393924;19;20138;-75
2022/07/31 07:04:48;;;;;;;2.50;1.50;;;;;22.50;94471.00;;;;7394160;19;20638;-76
2022/07/31 07:07:39;;;;;;;1.88;1.60;;;;;22.80;94472.00;;;;7396655;19;20664;-74
2022/07/31 07:10:13;;;;;;;1.50;1.40;;;;;22.70;94476.00;;;;7395545;19;20211;-76
2022/07/31 07:12:41;;;;;;;3.50;1.40;;;;;23.10;94456.00;;;;7395063;19;20658;-76
2022/07/31 07:15:09;;;;;;;2.58;1.60;;;;;23.50;94458.00;;;;7394775;19;20141;-76
2022/07/31 07:17:43;;;;;;;1.40;1.30;;;;;24.40;94447.00;;;;7396412;19;20180;-75
2022/07/31 07:20:11;;;;;;;1.83;1.35;;;;;24.80;94453.00;;;;7397296;19;20200;-74
2022/07/31 07:22:38;;;;;;;1.73;1.58;;;;;24.80;94459.00;;;;7397069;19;20121;-75
2022/07/31 07:25:12;;;;;;;3.17;1.55;;;;;24.60;94469.00;;;;7393642;19;20176;-75
2022/07/31 07:27:40;;;;;;;2.28;1.30;;;;;24.60;94470.00;;;;7396322;19;20129;-77
2022/07/31 07:30:08;;;;;;;1.83;1.30;;;;;24.30;94478.00;;;;7392573;19;20145;-76
2022/07/31 07:32:42;;;;;;;2.45;1.50;;;;;24.10;94475.00;;;;7393217;19;20160;-75
2022/07/31 07:35:11;;;;;;;3.45;1.50;;;;;24.00;94483.00;;;;7396397;19;20160;-75
2022/07/31 07:37:39;;;;;;;2.50;1.58;;;;;23.90;94476.00;;;;7397169;19;20156;-74
2022/07/31 07:40:15;;;;;;;1.60;1.50;;;;;23.90;94469.00;;;;7396685;19;20488;-74
2022/07/31 07:42:43;;;;;;;2.53;1.35;;;;;23.90;94482.00;;;;7393045;19;20144;-76
2022/07/31 07:45:11;;;;;;;2.05;1.27;;;;;23.80;94478.00;;;;7393881;19;20181;-76
2022/07/31 07:47:47;;;;;;;8.07;1.38;;;;;23.60;94476.00;;;;7395759;19;20160;-76
2022/07/31 07:50:33;;;;;;;1.67;1.30;;;;;23.60;94474.00;;;;7393910;19;20132;-76
2022/07/31 07:53:07;;;;;;;2.50;1.60;;;;;24.50;94473.00;;;;7394732;19;20473;-76
2022/07/31 07:55:37;;;;;;;1.88;1.45;;;;;24.50;94471.00;;;;7394336;19;20480;-74
2022/07/31 07:58:05;;;;;;;2.60;1.27;;;;;24.50;94467.00;;;;7393446;19;20164;-76
2022/07/31 08:00:47;;;;;;;2.47;1.45;;;;;24.70;94460.00;;;;7393202;19;20148;-77
2022/07/31 08:03:15;;;;;;;5.05;1.50;;;;;24.80;94459.00;;;;7394527;19;20475;-75
2022/07/31 08:06:23;;;;;;;3.38;1.50;;;;;24.80;94467.00;;;;7392555;19;20210;-77
2022/07/31 08:08:50;;;;;;;2.30;1.40;;;;;25.10;94460.00;;;;7391728;19;20168;-76
2022/07/31 08:11:24;;;;;;;2.00;1.48;;;;;25.50;94461.00;;;;7395208;19;20139;-74
2022/07/31 08:13:52;;;;;;;2.53;1.48;;;;;25.20;94468.00;;;;7394844;19;20251;-75
2022/07/31 08:16:20;;;;;;;3.28;1.50;;;;;24.70;94459.00;;;;7394903;19;20485;-76
2022/07/31 08:18:54;;;;;;;2.72;1.40;;;;;25.10;94465.00;;;;7392813;19;20163;-75
2022/07/31 08:21:22;;;;;;;3.13;1.80;;;;;25.40;94463.00;;;;7393344;19;20157;-77
2022/07/31 08:23:51;;;;;;;2.15;1.60;;;;;25.50;94458.00;;;;7396008;19;20113;-76
2022/07/31 08:26:25;;;;;;;2.53;1.85;;;;;25.40;94468.00;;;;7395303;19;20129;-76
2022/07/31 08:28:54;;;;;;;1.90;1.50;;;;;25.70;94458.00;;;;7392734;19;20136;-76
2022/07/31 08:31:22;;;;;;;3.17;1.60;;;;;25.60;94466.00;;;;7392043;19;20563;-75
2022/07/31 08:33:56;;;;;;;3.08;1.70;;;;;25.90;94465.00;;;;7393903;19;20140;-76
2022/07/31 08:36:24;;;;;;;4.10;1.80;;;;;26.00;94452.00;;;;7390242;19;20595;-73
2022/07/31 08:38:52;;;;;;;2.78;1.42;;;;;26.20;94460.00;;;;7391585;19;20261;-76
2022/07/31 08:41:26;;;;;;;2.70;1.75;;;;;25.90;94459.00;;;;7391415;19;20137;-76
2022/07/31 08:43:55;;;;;;;3.03;1.80;;;;;25.90;94465.00;;;;7393308;19;20515;-77
2022/07/31 08:46:34;;;;;;;2.58;1.55;;;;;25.40;94462.00;;;;7392619;19;20614;-78
2022/07/31 08:49:11;;;;;;;2.53;1.73;;;;;25.60;94468.00;;;;7390885;19;20125;-75
2022/07/31 08:51:42;;;;;;;2.33;1.70;;;;;25.30;94479.00;;;;7393237;19;20170;-74
2022/07/31 08:54:20;;;;;;;4.38;1.85;;;;;25.30;94468.00;;;;7392455;19;20136;-77
2022/07/31 08:56:51;;;;;;;2.70;1.80;;;;;25.80;94475.00;;;;7391538;19;20128;-74
2022/07/31 08:59:25;;;;;;;3.65;1.58;;;;;26.00;94462.00;;;;7391075;19;20211;-75
2022/07/31 09:01:55;;;;;;;7.00;1.83;;;;;25.80;94460.00;;;;7390280;19;20629;-78
2022/07/31 09:04:27;;;;;;;2.53;1.98;;;;;26.20;94453.00;;;;7392086;19;20133;-76
2022/07/31 09:07:13;;;;;;;4.55;1.83;;;;;26.20;94453.00;;;;7390309;19;20192;-75
2022/07/31 09:09:46;;;;;;;4.57;1.60;;;;;26.30;94458.00;;;;7391161;19;20172;-75
2022/07/31 09:12:32;;;;;;;3.47;1.90;;;;;26.00;94460.00;;;;7393210;19;20133;-75
2022/07/31 09:15:01;;;;;;;2.63;1.77;;;;;25.70;94463.00;;;;7391083;19;20129;-75
2022/07/31 09:17:35;;;;;;;2.38;1.55;;;;;25.60;94467.00;;;;7392587;19;20603;-76
2022/07/31 09:20:04;;;;;;;3.05;1.63;;;;;25.90;94462.00;;;;7391609;19;20140;-75
2022/07/31 09:22:32;;;;;;;5.43;1.88;;;;;26.20;94457.00;;;;7392069;19;20176;-74
2022/07/31 09:25:08;;;;;;;5.50;1.83;;;;;26.90;94448.00;;;;7390806;19;20493;-75
2022/07/31 09:27:36;;;;;;;3.92;1.77;;;;;27.40;94459.00;;;;7392992;19;20160;-75
2022/07/31 09:30:04;;;;;;;3.85;2.00;;;;;26.90;94444.00;;;;7388568;19;20516;-77
2022/07/31 09:32:38;;;;;;;5.15;1.65;;;;;27.40;94455.00;;;;7390811;19;20603;-76
2022/07/31 09:35:11;;;;;;;5.50;2.03;;;;;27.50;94465.00;;;;7390334;19;20149;-77
2022/07/31 09:37:49;;;;;;;3.58;1.98;;;;;27.20;94458.00;;;;7393090;19;20207;-74
2022/07/31 09:40:16;;;;;;;2.83;1.90;;;;;26.90;94464.00;;;;7390434;19;20133;-74
2022/07/31 09:42:49;;;;;;;2.20;1.60;;;;;26.60;94470.00;;;;7389569;19;20180;-78
2022/07/31 09:45:24;;;;;;;2.40;1.60;;;;;26.80;94451.00;;;;7391076;19;20165;-76
2022/07/31 09:48:11;;;;;;;3.30;1.90;;;;;27.40;94466.00;;;;7394638;19;20257;-79
2022/07/31 09:51:06;;;;;;;3.67;2.03;;;;;27.80;94442.00;;;;7395681;19;20463;-79
2022/07/31 09:53:45;;;;;;;3.33;1.77;;;;;28.60;94439.00;;;;7398920;19;20271;-75
2022/07/31 09:56:33;;;;;;;3.50;1.90;;;;;28.90;94425.00;;;;7397969;19;20133;-76
2022/07/31 09:59:02;;;;;;;2.75;1.90;;;;;28.90;94432.00;;;;7397003;19;20600;-76
2022/07/31 10:01:40;;;;;;;2.83;1.70;;;;;28.30;94452.00;;;;7397751;19;20175;-73
2022/07/31 10:04:09;;;;;;;2.40;1.73;;;;;27.90;94429.00;;;;7398805;19;20189;-74
2022/07/31 10:06:53;;;;;;;2.25;1.75;;;;;28.70;94436.00;;;;7396303;19;20491;-73
2022/07/31 10:09:26;;;;;;;8.05;2.10;;;;;28.00;94450.00;;;;7402642;19;20149;-75
2022/07/31 10:15:40;;;;;;;3.63;1.52;;;;;27.80;94450.00;;;;7393344;19;20527;-75
2022/07/31 10:18:20;;;;;;;2.95;1.67;;;;;27.80;94452.00;;;;7399847;19;20160;-74
2022/07/31 10:21:05;;;;;;;2.22;1.65;;;;;28.00;94442.00;;;;7400778;19;20148;-73
2022/07/31 10:23:42;;;;;;;2.15;1.63;;;;;27.80;94446.00;;;;7402084;19;20155;-73
2022/07/31 10:26:11;;;;;;;3.40;1.70;;;;;27.90;94443.00;;;;7404218;19;20138;-75
2022/07/31 10:28:40;;;;;;;4.32;1.75;;;;;27.40;94452.00;;;;7401017;19;20186;-75
2022/07/31 10:31:15;;;;;;;5.22;1.60;;;;;27.30;94446.00;;;;7395067;19;20148;-74
2022/07/31 10:33:44;;;;;;;3.30;1.80;;;;;27.30;94452.00;;;;7399786;19;20546;-73
2022/07/31 10:36:28;;;;;;;5.30;1.90;;;;;27.10;94452.00;;;;7400802;19;20185;-77
2022/07/31 10:39:13;;;;;;;3.60;1.88;;;;;27.60;94449.00;;;;7398832;19;20133;-75
2022/07/31 10:42:11;;;;;;;5.10;2.08;;;;;27.20;94445.00;;;;7400181;19;20453;-75
2022/07/31 10:44:54;;;;;;;2.63;1.77;;;;;26.80;94443.00;;;;7401174;19;20456;-75
2022/07/31 10:47:22;;;;;;;4.85;2.17;;;;;26.90;94422.00;;;;7399137;19;20125;-73
2022/07/31 10:49:57;;;;;;;2.95;2.03;;;;;28.10;94407.00;;;;7397019;19;20492;-75
2022/07/31 10:52:36;;;;;;;5.30;2.03;;;;;29.10;94411.00;;;;7398603;19;20628;-75
2022/07/31 10:55:21;;;;;;;6.15;1.80;;;;;29.10;94409.00;;;;7398148;19;20163;-73
2022/07/31 10:57:50;;;;;;;2.60;1.60;;;;;29.10;94391.00;;;;7399001;19;20519;-75
2022/07/31 11:00:28;;;;;;;2.58;1.88;;;;;28.80;94398.00;;;;7396788;19;20149;-76
2022/07/31 11:02:56;;;;;;;4.82;1.92;;;;;29.30;94392.00;;;;7396026;19;20177;-75
2022/07/31 11:05:27;;;;;;;4.10;2.28;;;;;28.70;94385.00;;;;7399043;19;20150;-73
2022/07/31 11:08:39;;;;;;;4.05;2.00;;;;;28.50;94403.00;;;;7400546;19;20504;-76
2022/07/31 11:11:07;;;;;;;3.42;1.75;;;;;29.10;94402.00;;;;7396205;19;20145;-75
2022/07/31 11:13:50;;;;;;;2.90;1.98;;;;;29.40;94409.00;;;;7398140;19;20483;-76
2022/07/31 11:16:18;;;;;;;4.13;1.95;;;;;29.40;94373.00;;;;7399476;19;20147;-75
2022/07/31 11:19:01;;;;;;;2.78;1.50;;;;;29.90;94380.00;;;;7400296;19;20720;-76
2022/07/31 11:21:35;;;;;;;2.95;1.50;;;;;30.20;94380.00;;;;7399845;19;20517;-75
2022/07/31 11:24:23;;;;;;;2.78;1.50;;;;;30.30;94396.00;;;;7398737;19;20212;-75
2022/07/31 11:26:53;;;;;;;2.55;1.50;;;;;29.70;94400.00;;;;7398999;19;20220;-76
2022/07/31 11:29:31;;;;;;;3.42;1.67;;;;;28.30;94409.00;;;;7396635;19;20140;-75
2022/07/31 11:32:19;;;;;;;4.38;1.70;;;;;28.30;94409.00;;;;7397336;19;20498;-75
2022/07/31 11:34:56;;;;;;;1.92;1.67;;;;;28.00;94405.00;;;;7398788;19;20176;-76
2022/07/31 11:37:29;;;;;;;1.90;1.70;;;;;27.50;94416.00;;;;7399545;19;20151;-75
2022/07/31 11:40:24;;;;;;;1.98;1.60;;;;;27.50;94409.00;;;;7399204;19;20141;-75
2022/07/31 11:42:56;;;;;;;4.03;1.80;;;;;27.90;94389.00;;;;7399308;19;20140;-75
2022/07/31 11:45:53;;;;;;;2.67;1.88;;;;;29.20;94399.00;;;;7397880;19;20136;-76
2022/07/31 11:48:25;;;;;;;3.10;1.60;;;;;29.20;94390.00;;;;7398291;19;20587;-74
2022/07/31 11:51:07;;;;;;;2.00;1.77;;;;;29.40;94371.00;;;;7394309;19;20140;-77
2022/07/31 11:53:42;;;;;;;4.38;1.75;;;;;29.90;94370.00;;;;7398825;19;20144;-74
2022/07/31 11:56:24;;;;;;;1.83;1.40;;;;;29.10;94364.00;;;;7398580;19;20496;-78
2022/07/31 11:58:55;;;;;;;3.58;1.80;;;;;29.50;94376.00;;;;7396799;19;20483;-75
2022/07/31 12:01:32;;;;;;;1.95;1.45;;;;;28.80;94385.00;;;;7394762;19;20603;-76
2022/07/31 12:04:00;;;;;;;5.30;1.83;;;;;28.30;94388.00;;;;7394848;19;20169;-75
2022/07/31 12:06:37;;;;;;;2.33;1.60;;;;;27.40;94381.00;;;;7396765;19;20184;-73
2022/07/31 12:09:18;;;;;;;5.28;1.75;;;;;27.90;94372.00;;;;7393111;19;20148;-73
2022/07/31 12:12:06;;;;;;;4.53;1.80;;;;;28.80;94355.00;;;;7391599;19;20586;-74
2022/07/31 12:14:40;;;;;;;1.65;1.52;;;;;28.40;94351.00;;;;7395138;19;20733;-75
2022/07/31 12:17:19;;;;;;;2.05;1.60;;;;;29.20;94370.00;;;;7394528;19;20497;-75
2022/07/31 12:19:53;;;;;;;3.60;1.50;;;;;29.10;94350.00;;;;7393901;19;20176;-75
2022/07/31 12:22:25;;;;;;;2.33;1.52;;;;;28.90;94364.00;;;;7395635;19;20129;-74
2022/07/31 12:24:59;;;;;;;4.18;1.80;;;;;28.70;94351.00;;;;7396673;19;20646;-74
2022/07/31 12:27:36;;;;;;;2.53;1.70;;;;;28.40;94366.00;;;;7393453;19;20532;-73
2022/07/31 12:30:16;;;;;;;3.45;1.88;;;;;28.40;94345.00;;;;7394702;19;20223;-74
2022/07/31 12:33:05;;;;;;;3.33;1.70;;;;;29.00;94355.00;;;;7394765;19;20165;-75
2022/07/31 12:35:41;;;;;;;2.90;1.67;;;;;29.90;94347.00;;;;7394616;19;20140;-74
2022/07/31 12:38:25;;;;;;;2.88;1.80;;;;;29.60;94340.00;;;;7394575;19;20128;-75
2022/07/31 12:41:13;;;;;;;2.78;1.60;;;;;30.40;94330.00;;;;7392015;19;20188;-74
2022/07/31 12:43:48;;;;;;;3.28;1.60;;;;;30.20;94341.00;;;;7393735;19;20144;-75
2022/07/31 12:46:20;;;;;;;2.30;1.60;;;;;29.90;94335.00;;;;7393613;19;20491;-75
2022/07/31 12:48:58;;;;;;;2.10;1.67;;;;;30.30;94338.00;;;;7394592;19;20599;-73
2022/07/31 12:51:26;;;;;;;2.17;1.98;;;;;30.20;94355.00;;;;7391349;19;20129;-74
2022/07/31 12:54:17;;;;;;;3.05;1.80;;;;;29.00;94356.00;;;;7392546;19;20152;-74
2022/07/31 12:56:50;;;;;;;3.45;1.90;;;;;29.10;94334.00;;;;7393262;19;20216;-73
2022/07/31 12:59:18;;;;;;;2.30;1.77;;;;;29.50;94341.00;;;;7385766;19;20629;-75